Terminal Aerodrome Forecast
Issued by NWS

Home | Current Version | Previous Version | Text Only | Print | Product List | Glossary On
Versions: 1 2 3 4 5 6 7 8 9 10 11 12 13
000
FTUS42 KFFC 192324
TAFRYY
TAF
KRYY 192324Z 2000/2024 33003KT P6SM FEW050 BKN250
     FM201800 29005KT P6SM VCSH SCT050=

USA.gov is the U.S. government's official web portal to all federal, state and local government web resources and services.